Aérodrome :
LOGIN :

S'inscrire | Disclaimer

   EN    FR    IT 

 










Légende :    VFR   VFR Marginal   IFR   IFR Intensif   IFR Très Intensif
Visi : 
Plafond : 
>= 8 km
>= 3000ft
5 à 8 km
1000 à 3000 ft
1500m à 5 km
500 à 1000 ft
800 à 1500m
200 à 500 ft
< 800m
< 200 ft
Symboles :   Orages  Brouillard  Fortes neiges  Fortes précipitations  Vent > 20 kt
SIGMETs :   Divers  Orages  Givrage  Turbulence  Onde Orograph.  Cendres Volcan.






- Altitude de l'aérodrome : 574 ft
- Code IATA : TEQ


LTBU - Corlu

DERNIER METAR :
  • 030050Z 30004KT 270V330 9999 FEW040 BKN080 13/11 Q1008

METARs EXPIRÉS :
  • 030020Z 30004KT 9999 FEW040 BKN080 13/12 Q1008
  • 022350Z 30004KT 9999 FEW040 BKN100 13/11 Q1008
  • 022320Z 28005KT 9999 FEW040 BKN100 13/11 Q1008
  • 022250Z 33004KT 9999 FEW040 BKN100 12/11 Q1008
  • 022220Z 32004KT 9999 FEW040 BKN100 12/11 Q1008

TAF TAF LTBU
Valide du 03 à 00h jusqu'au 04 à 00h UTC


022240Z 0300/0324 VRB02KT 9999 SCT040 BKN100
TEMPO 0305/0308 -TSRA FEW017CB BKN030
BECMG 0308/0310 18012KT
TEMPO 0312/0315 -SHRA
BECMG 0315/0318 VRB02KT CAVOK



MET'MAP, la Météo Aéronautique d'un coup d'oeil ! - Copyright ORBIFLY Décembre 2007 - Disclaimer

ORBIFLY MET'MAP TEAM :

Programmation & Développement : Alexandra Zaïnal
Sur une idée originale de : Baudouin d'Aumeries
Assistance à la programmation : Marc-Olivier Méhu
Soutien technique & logistique : Manuel Goepfert

Contact : metmap@orbifly.com




SOURCES & CREDITS :

   NOAA